Time;durP1;ratioP1;P1;durP2;ratioP2;P2;SDS_P1;SDS_P2;PMS_P1;PMS_P2;Temp;Humidity;BMP_temperature;BMP_pressure;BME280_temperature;BME280_humidity;BME280_pressure;Samples;Min_cycle;Max_cycle;Signal;HPM_P1;HPM_P2
2021/04/24 00:02:41;;;;;;;6.97;4.25;;;9.90;55.00;;;;;;5105270;28;27560;-56
2021/04/24 00:06:08;;;;;;;8.27;4.13;;;9.80;55.20;;;;;;5105321;28;27387;-56
2021/04/24 00:09:16;;;;;;;8.68;4.60;;;9.80;55.30;;;;;;5105126;28;27386;-56
2021/04/24 00:12:44;;;;;;;7.38;4.47;;;9.70;55.30;;;;;;5105003;28;27453;-56
2021/04/24 00:16:27;;;;;;;8.48;4.75;;;9.70;55.40;;;;;;5104920;28;27392;-56
2021/04/24 00:19:40;;;;;;;12.93;4.45;;;9.70;55.40;;;;;;5104292;28;27400;-55
2021/04/24 00:23:08;;;;;;;7.53;4.18;;;9.60;55.40;;;;;;5105255;28;27832;-55
2021/04/24 00:27:00;;;;;;;7.15;3.78;;;9.60;55.50;;;;;;5103012;28;27533;-55
2021/04/24 00:30:28;;;;;;;4.90;3.88;;;9.50;55.60;;;;;;5105111;28;26937;-55
2021/04/24 00:33:51;;;;;;;9.05;4.28;;;9.40;55.60;;;;;;5104833;28;27463;-55
2021/04/24 00:37:04;;;;;;;6.93;4.07;;;9.40;56.20;;;;;;5104327;28;27496;-55
2021/04/24 00:40:11;;;;;;;8.63;3.80;;;9.40;55.80;;;;;;5100541;28;27506;-56
2021/04/24 00:43:03;;;;;;;5.15;4.18;;;9.30;55.70;;;;;;5100671;28;27360;-54
2021/04/24 00:46:17;;;;;;;7.65;4.30;;;9.30;55.90;;;;;;5104846;28;27493;-55
2021/04/24 00:49:31;;;;;;;12.18;4.65;;;9.20;56.70;;;;;;5104629;28;27876;-55
2021/04/24 00:52:59;;;;;;;8.50;4.20;;;9.10;56.00;;;;;;5104861;28;27317;-55
2021/04/24 00:56:42;;;;;;;7.50;4.43;;;9.10;56.10;;;;;;5101189;28;27363;-55
2021/04/24 00:59:55;;;;;;;8.50;4.22;;;9.10;56.20;;;;;;5102791;28;27354;-55
2021/04/24 01:03:08;;;;;;;6.03;4.47;;;9.00;56.40;;;;;;5101065;28;27967;-55
2021/04/24 01:06:19;;;;;;;8.95;4.40;;;8.90;56.20;;;;;;5104569;28;27410;-54
2021/04/24 01:09:39;;;;;;;14.25;4.93;;;8.90;56.40;;;;;;5102439;28;27464;-56
2021/04/24 01:13:02;;;;;;;9.00;4.15;;;8.90;56.40;;;;;;5104168;28;27400;-55
2021/04/24 01:16:12;;;;;;;8.10;4.55;;;8.80;56.40;;;;;;5104118;28;27411;-55
2021/04/24 01:19:26;;;;;;;6.45;4.05;;;8.80;56.50;;;;;;5102503;28;27339;-56
2021/04/24 01:22:54;;;;;;;5.95;4.03;;;8.80;56.50;;;;;;5104048;28;27344;-55
2021/04/24 01:26:42;;;;;;;9.55;5.03;;;8.70;56.60;;;;;;5103708;28;27415;-55
2021/04/24 01:30:03;;;;;;;8.77;4.28;;;8.70;56.70;;;;;;5103947;28;27415;-55
2021/04/24 01:33:16;;;;;;;13.32;4.32;;;8.60;56.70;;;;;;5100595;28;27473;-56
2021/04/24 01:36:25;;;;;;;6.72;3.80;;;8.60;56.70;;;;;;5100354;28;27441;-55
2021/04/24 01:39:38;;;;;;;7.32;4.60;;;8.60;56.90;;;;;;5103547;28;27406;-56
2021/04/24 01:42:44;;;;;;;10.13;4.53;;;8.50;56.80;;;;;;5099433;28;27492;-55
2021/04/24 01:45:55;;;;;;;7.00;4.18;;;8.50;56.90;;;;;;5103756;28;27469;-55
2021/04/24 01:49:09;;;;;;;8.00;4.93;;;8.40;57.00;;;;;;5102445;28;27675;-56
2021/04/24 01:52:22;;;;;;;12.20;4.70;;;8.40;57.10;;;;;;5103618;28;27336;-56
2021/04/24 01:55:44;;;;;;;6.28;4.65;;;8.40;56.70;;;;;;5103495;28;27475;-55
2021/04/24 01:59:14;;;;;;;8.80;4.60;;;8.30;57.30;;;;;;5103365;28;27502;-54
2021/04/24 02:02:55;;;;;;;13.52;4.65;;;8.30;57.20;;;;;;5100216;28;27426;-55
2021/04/24 02:06:08;;;;;;;9.88;4.93;;;8.20;57.10;;;;;;5101992;28;27419;-55
2021/04/24 02:09:14;;;;;;;7.40;4.22;;;8.20;57.30;;;;;;5103261;28;27493;-55
2021/04/24 02:12:13;;;;;;;7.63;4.65;;;8.20;57.30;;;;;;5103478;28;27410;-55
2021/04/24 02:15:27;;;;;;;6.47;4.30;;;8.10;57.40;;;;;;5103320;28;27340;-55
2021/04/24 02:18:40;;;;;;;8.18;4.50;;;8.10;57.40;;;;;;5102882;28;27555;-55
2021/04/24 02:21:54;;;;;;;5.50;3.92;;;8.10;57.60;;;;;;5103013;28;27655;-55
2021/04/24 02:24:46;;;;;;;10.30;4.60;;;8.00;57.50;;;;;;5103213;28;27582;-55
2021/04/24 02:28:11;;;;;;;11.30;4.63;;;8.00;57.50;;;;;;5102880;28;26941;-56
2021/04/24 02:31:25;;;;;;;7.50;4.70;;;7.90;57.60;;;;;;5103166;28;27340;-56
2021/04/24 02:34:41;;;;;;;7.22;4.45;;;7.80;57.80;;;;;;5099642;28;27366;-56
2021/04/24 02:38:06;;;;;;;8.70;4.43;;;7.80;57.60;;;;;;5103195;28;27443;-56
2021/04/24 02:41:19;;;;;;;9.35;4.30;;;7.90;57.90;;;;;;5103173;28;27328;-55
2021/04/24 02:44:25;;;;;;;10.40;4.72;;;7.80;57.90;;;;;;5102347;28;27388;-56
2021/04/24 02:47:35;;;;;;;7.03;4.63;;;7.80;57.70;;;;;;5102160;28;27847;-56
2021/04/24 02:50:22;;;;;;;8.15;4.53;;;7.80;57.80;;;;;;5106242;28;27427;-56
2021/04/24 02:53:32;;;;;;;7.03;4.40;;;7.80;57.80;;;;;;5106754;28;27485;-56
2021/04/24 02:56:46;;;;;;;9.60;4.63;;;7.80;57.80;;;;;;5105058;28;27414;-56
2021/04/24 03:00:01;;;;;;;9.75;5.05;;;7.70;58.50;;;;;;5103125;28;27383;-57
2021/04/24 03:03:28;;;;;;;10.25;4.63;;;7.70;57.90;;;;;;5106197;28;27348;-57
2021/04/24 03:07:25;;;;;;;6.60;3.95;;;7.60;58.00;;;;;;5105550;28;27441;-56
2021/04/24 03:10:35;;;;;;;5.80;3.65;;;7.60;58.00;;;;;;5105716;28;27322;-57
2021/04/24 03:13:48;;;;;;;8.25;4.40;;;7.50;58.00;;;;;;5106509;28;27327;-56
2021/04/24 03:17:02;;;;;;;7.63;4.55;;;7.40;58.20;;;;;;5106074;28;27417;-56
2021/04/24 03:20:29;;;;;;;7.45;4.82;;;7.40;58.20;;;;;;5105495;28;27538;-57
2021/04/24 03:23:43;;;;;;;7.20;4.10;;;7.40;58.20;;;;;;5102352;28;27370;-57
2021/04/24 03:26:48;;;;;;;6.00;3.67;;;7.30;58.20;;;;;;5105851;28;27445;-56
2021/04/24 03:29:48;;;;;;;7.28;4.05;;;7.30;58.30;;;;;;5105389;28;27619;-49
2021/04/24 03:33:15;;;;;;;8.43;4.70;;;7.30;58.40;;;;;;5105860;28;27371;-57
2021/04/24 03:37:08;;;;;;;7.13;4.65;;;7.20;58.40;;;;;;5105307;28;27442;-56
2021/04/24 03:40:09;;;;;;;7.25;4.30;;;7.20;58.50;;;;;;5105091;28;27482;-56
2021/04/24 03:43:22;;;;;;;7.32;4.63;;;7.20;58.50;;;;;;5105365;28;27413;-56
2021/04/24 03:46:33;;;;;;;7.53;4.20;;;7.20;58.50;;;;;;5105007;28;27474;-55
2021/04/24 03:49:46;;;;;;;8.80;4.38;;;7.20;58.50;;;;;;5101854;28;27338;-56
2021/04/24 03:53:18;;;;;;;10.25;4.75;;;7.20;58.40;;;;;;5105260;28;27413;-53
2021/04/24 03:56:19;;;;;;;6.85;4.50;;;7.10;58.40;;;;;;5103920;28;27438;-56
2021/04/24 03:59:20;;;;;;;7.07;4.00;;;7.10;58.40;;;;;;5101771;27;27410;-56
2021/04/24 04:02:11;;;;;;;7.65;4.25;;;7.10;58.40;;;;;;5105164;28;27399;-50
2021/04/24 04:05:28;;;;;;;7.90;4.13;;;7.10;58.50;;;;;;5105494;28;27856;-55
2021/04/24 04:08:35;;;;;;;10.23;4.10;;;7.00;58.60;;;;;;5104665;28;27457;-56
2021/04/24 04:12:06;;;;;;;8.35;4.88;;;7.00;58.50;;;;;;5101665;28;27386;-56
2021/04/24 04:15:12;;;;;;;6.53;4.32;;;7.00;58.70;;;;;;5103376;28;27465;-56
2021/04/24 04:18:26;;;;;;;7.03;4.05;;;6.90;58.70;;;;;;5105089;28;27414;-57
2021/04/24 04:21:37;;;;;;;8.10;4.25;;;6.90;58.80;;;;;;5104656;28;27482;-56
2021/04/24 04:24:48;;;;;;;8.55;3.92;;;6.90;58.80;;;;;;5103152;28;27375;-56
2021/04/24 04:28:02;;;;;;;6.45;4.13;;;6.80;58.80;;;;;;5102319;28;27366;-56
2021/04/24 04:31:16;;;;;;;7.95;4.13;;;6.80;58.80;;;;;;5104708;28;27384;-56
2021/04/24 04:34:36;;;;;;;8.95;4.55;;;6.70;58.90;;;;;;5104281;28;27491;-57
2021/04/24 04:37:49;;;;;;;6.65;4.07;;;6.80;59.00;;;;;;5104669;28;27416;-57
2021/04/24 04:41:02;;;;;;;12.15;4.60;;;6.80;59.70;;;;;;5104588;28;27347;-54
2021/04/24 04:44:16;;;;;;;7.22;4.60;;;6.80;59.10;;;;;;5104613;28;27854;-55
2021/04/24 04:47:29;;;;;;;8.88;4.68;;;6.80;59.10;;;;;;5103664;28;27419;-55
2021/04/24 04:50:43;;;;;;;12.77;4.57;;;6.80;59.10;;;;;;5104559;28;27419;-54
2021/04/24 04:54:11;;;;;;;8.35;4.88;;;6.80;59.20;;;;;;5104265;28;27536;-55
2021/04/24 04:58:22;;;;;;;6.78;4.35;;;6.80;59.10;;;;;;5103829;28;27563;-55
2021/04/24 05:02:04;;;;;;;7.68;4.70;;;6.80;60.00;;;;;;5101644;28;27447;-55
2021/04/24 05:05:17;;;;;;;11.07;4.60;;;6.80;59.30;;;;;;5104343;28;27370;-55
2021/04/24 05:08:44;;;;;;;7.13;4.70;;;6.80;59.60;;;;;;5101995;28;27465;-54
2021/04/24 05:12:19;;;;;;;9.40;5.40;;;6.80;59.70;;;;;;5103990;27;27422;-56
2021/04/24 05:15:53;;;;;;;9.02;4.88;;;6.80;59.80;;;;;;5104221;28;27438;-55
2021/04/24 05:19:25;;;;;;;7.57;4.28;;;6.80;59.90;;;;;;5104098;28;27517;-56
2021/04/24 05:22:41;;;;;;;10.15;4.82;;;6.80;60.10;;;;;;5104224;28;27478;-56
2021/04/24 05:25:55;;;;;;;10.07;4.88;;;6.80;60.00;;;;;;5104298;28;27892;-56
2021/04/24 05:29:08;;;;;;;8.73;4.55;;;6.70;60.10;;;;;;5103753;28;27439;-56
2021/04/24 05:32:15;;;;;;;8.90;4.70;;;6.80;60.30;;;;;;5104049;28;27660;-56
2021/04/24 05:35:14;;;;;;;9.02;4.72;;;6.80;60.50;;;;;;5103887;28;27448;-52
2021/04/24 05:38:19;;;;;;;6.07;4.50;;;6.80;60.50;;;;;;5103729;28;27385;-56
2021/04/24 05:41:32;;;;;;;10.52;4.72;;;6.90;60.40;;;;;;5099944;28;27356;-56
2021/04/24 05:44:38;;;;;;;8.15;4.22;;;7.00;60.50;;;;;;5103851;28;27434;-56
2021/04/24 05:48:06;;;;;;;11.13;4.40;;;7.00;60.50;;;;;;5102495;28;27384;-56
2021/04/24 05:51:37;;;;;;;7.07;4.18;;;7.10;60.50;;;;;;5103301;28;27631;-55
2021/04/24 05:55:06;;;;;;;7.03;4.50;;;7.20;60.70;;;;;;5103038;28;27361;-55
2021/04/24 05:58:31;;;;;;;9.82;4.85;;;7.30;60.70;;;;;;5100732;28;27410;-56
2021/04/24 06:01:45;;;;;;;8.23;4.85;;;7.30;60.80;;;;;;5105048;28;27402;-55
2021/04/24 06:04:37;;;;;;;11.43;5.25;;;7.40;61.20;;;;;;5104950;28;27385;-55
2021/04/24 06:08:04;;;;;;;8.10;4.63;;;7.40;61.40;;;;;;5101666;28;27442;-56
2021/04/24 06:11:17;;;;;;;8.88;5.07;;;7.50;61.50;;;;;;5103880;28;27573;-55
2021/04/24 06:14:27;;;;;;;6.65;4.78;;;7.60;61.50;;;;;;5104600;28;27408;-55
2021/04/24 06:17:54;;;;;;;8.90;5.18;;;7.70;61.80;;;;;;5104201;28;27371;-55
2021/04/24 06:21:41;;;;;;;10.75;5.50;;;7.80;61.70;;;;;;5104510;28;27479;-55
2021/04/24 06:24:26;;;;;;;11.02;5.85;;;8.00;61.00;;;;;;5102970;28;27497;-54
2021/04/24 06:27:24;;;;;;;10.85;5.50;;;8.20;61.10;;;;;;5104400;28;27470;-55
2021/04/24 06:30:51;;;;;;;9.48;5.22;;;8.50;60.70;;;;;;5104537;28;27849;-56
2021/04/24 06:34:37;;;;;;;11.32;5.15;;;8.90;59.10;;;;;;5104309;28;27336;-55
2021/04/24 06:38:04;;;;;;;9.23;5.35;;;9.60;57.90;;;;;;5104406;28;27379;-56
2021/04/24 06:41:21;;;;;;;9.25;5.65;;;10.10;56.10;;;;;;5101933;28;27498;-56
2021/04/24 06:44:05;;;;;;;9.10;5.13;;;10.60;56.20;;;;;;5101222;28;27403;-55
2021/04/24 06:47:24;;;;;;;11.80;5.78;;;11.00;55.20;;;;;;5103805;28;27444;-55
2021/04/24 06:50:39;;;;;;;12.05;5.93;;;11.50;54.00;;;;;;5104269;28;27324;-56
2021/04/24 06:54:07;;;;;;;9.75;5.53;;;11.90;53.40;;;;;;5104166;28;27362;-56
2021/04/24 06:57:01;;;;;;;8.05;5.50;;;12.30;53.10;;;;;;5103878;28;27337;-56
2021/04/24 07:00:08;;;;;;;12.23;5.90;;;12.60;51.70;;;;;;5088152;28;27399;-56
2021/04/24 07:03:21;;;;;;;17.10;5.80;;;12.90;51.30;;;;;;5104130;28;27647;-56
2021/04/24 07:06:18;;;;;;;8.57;5.70;;;13.20;50.90;;;;;;5103964;28;27378;-56
2021/04/24 07:09:30;;;;;;;24.10;6.43;;;13.40;50.80;;;;;;5104219;28;27917;-56
2021/04/24 07:12:36;;;;;;;10.95;5.80;;;13.70;50.20;;;;;;5103655;28;27387;-56
2021/04/24 07:15:33;;;;;;;10.45;6.43;;;14.00;49.50;;;;;;5103863;28;27398;-56
2021/04/24 07:19:00;;;;;;;10.25;5.90;;;14.20;48.80;;;;;;5103185;28;27320;-56
2021/04/24 07:22:51;;;;;;;9.90;6.10;;;14.50;48.30;;;;;;5103343;28;27431;-56
2021/04/24 07:26:18;;;;;;;10.90;6.90;;;14.80;48.50;;;;;;5103340;28;27379;-56
2021/04/24 07:29:23;;;;;;;13.05;6.03;;;15.10;47.90;;;;;;5103237;28;27412;-57
2021/04/24 07:32:50;;;;;;;13.25;6.70;;;15.40;47.70;;;;;;5103071;28;27335;-56
2021/04/24 07:36:17;;;;;;;10.75;6.75;;;15.60;48.40;;;;;;5106159;27;27461;-57
2021/04/24 07:39:24;;;;;;;10.23;6.07;;;15.80;47.70;;;;;;5106808;28;27422;-57
2021/04/24 07:42:51;;;;;;;11.57;6.93;;;16.20;47.60;;;;;;5105716;28;27604;-57
2021/04/24 07:46:36;;;;;;;9.35;6.63;;;16.40;47.20;;;;;;5103408;28;27406;-57
2021/04/24 07:49:41;;;;;;;14.40;7.18;;;16.70;46.50;;;;;;5105537;28;27623;-57
2021/04/24 07:52:47;;;;;;;12.70;7.10;;;17.00;46.40;;;;;;5103102;28;27586;-57
2021/04/24 07:55:54;;;;;;;13.32;6.70;;;17.40;47.20;;;;;;5106973;28;27364;-57
2021/04/24 07:58:40;;;;;;;10.30;6.25;;;17.70;47.00;;;;;;5106330;28;27565;-57
2021/04/24 08:01:48;;;;;;;10.95;7.22;;;18.00;47.10;;;;;;5106219;28;28099;-57
2021/04/24 08:04:54;;;;;;;13.70;7.00;;;18.30;44.00;;;;;;5103311;28;27415;-57
2021/04/24 08:08:21;;;;;;;11.13;6.50;;;18.50;42.90;;;;;;5106281;28;27367;-58
2021/04/24 08:11:48;;;;;;;9.85;6.10;;;18.80;44.00;;;;;;5106093;28;27382;-57
2021/04/24 08:15:07;;;;;;;12.65;5.65;;;19.10;43.30;;;;;;5106481;28;27432;-57
2021/04/24 08:18:00;;;;;;;10.07;6.47;;;19.40;43.90;;;;;;5102392;28;27503;-58
2021/04/24 08:21:17;;;;;;;16.70;7.32;;;19.70;43.30;;;;;;5102441;28;27470;-58
2021/04/24 08:24:49;;;;;;;14.23;7.38;;;19.90;41.70;;;;;;5106606;28;27404;-57
2021/04/24 08:28:16;;;;;;;13.75;6.95;;;20.10;43.80;;;;;;5105171;28;28031;-58
2021/04/24 08:31:58;;;;;;;13.23;7.32;;;20.30;42.10;;;;;;5106222;28;27438;-58
2021/04/24 08:35:34;;;;;;;9.38;6.43;;;20.50;41.70;;;;;;5102751;28;27382;-58
2021/04/24 08:38:43;;;;;;;11.15;6.30;;;20.70;43.10;;;;;;5105844;28;27529;-58
2021/04/24 08:41:49;;;;;;;13.73;6.07;;;20.90;41.70;;;;;;5104832;28;27380;-58
2021/04/24 08:45:18;;;;;;;9.77;6.78;;;21.00;43.00;;;;;;5105921;28;27540;-58
2021/04/24 08:48:23;;;;;;;13.57;6.53;;;21.10;41.70;;;;;;5104389;28;27380;-58
2021/04/24 08:51:20;;;;;;;12.00;6.97;;;21.30;42.10;;;;;;5105961;28;27316;-58
2021/04/24 08:54:35;;;;;;;13.05;7.10;;;21.50;41.20;;;;;;5106160;28;27465;-58
2021/04/24 08:57:27;;;;;;;9.57;6.03;;;21.60;41.50;;;;;;5104049;28;27450;-58
2021/04/24 09:00:44;;;;;;;16.40;6.60;;;21.70;44.20;;;;;;5102217;28;27496;-58
2021/04/24 09:03:57;;;;;;;11.30;7.05;;;22.00;41.30;;;;;;5105937;28;27470;-58
2021/04/24 09:07:30;;;;;;;13.32;6.93;;;22.10;41.00;;;;;;5105057;28;27400;-58
2021/04/24 09:11:36;;;;;;;11.48;6.93;;;22.30;39.20;;;;;;5104275;28;27506;-59
2021/04/24 09:15:03;;;;;;;10.18;6.65;;;22.60;38.90;;;;;;5105088;28;27367;-59
2021/04/24 09:18:51;;;;;;;11.07;6.32;;;22.70;39.70;;;;;;5105483;28;27449;-59
2021/04/24 09:22:38;;;;;;;13.02;5.75;;;22.90;39.10;;;;;;5101799;28;27982;-59
2021/04/24 09:26:08;;;;;;;10.73;5.68;;;23.10;41.10;;;;;;5105059;28;27469;-59
2021/04/24 09:29:28;;;;;;;11.18;5.97;;;23.30;38.70;;;;;;5105684;28;27312;-59
2021/04/24 09:32:40;;;;;;;12.02;6.68;;;23.50;41.20;;;;;;5104298;28;27444;-59
2021/04/24 09:36:19;;;;;;;9.05;5.45;;;23.60;38.10;;;;;;5104863;28;27545;-59
2021/04/24 09:39:29;;;;;;;10.02;5.70;;;23.70;40.20;;;;;;5105008;28;27384;-59
2021/04/24 09:42:38;;;;;;;9.68;5.95;;;23.80;38.70;;;;;;5102648;28;27320;-59
2021/04/24 09:45:31;;;;;;;10.10;6.63;;;23.80;38.20;;;;;;5105065;28;27392;-59
2021/04/24 09:48:38;;;;;;;10.85;6.00;;;23.80;37.60;;;;;;5104467;28;27739;-59
2021/04/24 09:52:04;;;;;;;10.95;5.57;;;24.00;37.10;;;;;;5101453;28;27482;-59
2021/04/24 09:55:17;;;;;;;9.82;5.40;;;24.10;38.00;;;;;;5105265;28;27465;-59
2021/04/24 09:58:27;;;;;;;8.07;5.20;;;24.20;37.50;;;;;;5104021;28;27473;-59
2021/04/24 10:02:03;;;;;;;10.50;5.05;;;24.40;38.90;;;;;;5104205;28;27394;-60
2021/04/24 10:05:41;;;;;;;9.68;5.60;;;24.50;39.60;;;;;;5101210;28;27317;-59
2021/04/24 10:09:08;;;;;;;9.02;4.80;;;24.70;38.80;;;;;;5105054;28;27419;-59
2021/04/24 10:12:56;;;;;;;11.55;5.05;;;24.80;38.40;;;;;;5104553;28;27606;-60
2021/04/24 10:16:42;;;;;;;9.50;5.05;;;24.80;40.40;;;;;;5103954;28;27316;-60
2021/04/24 10:20:09;;;;;;;7.78;4.25;;;24.90;39.40;;;;;;5104454;28;27382;-60
2021/04/24 10:23:17;;;;;;;10.43;5.07;;;25.00;39.60;;;;;;5103529;28;27494;-60
2021/04/24 10:26:48;;;;;;;7.88;4.47;;;25.00;39.50;;;;;;5103337;28;27450;-60
2021/04/24 10:29:54;;;;;;;10.07;4.75;;;25.00;39.80;;;;;;5103515;28;27319;-60
2021/04/24 10:33:21;;;;;;;7.72;4.78;;;25.00;39.20;;;;;;5104653;28;27524;-60
2021/04/24 10:36:49;;;;;;;8.52;4.70;;;24.90;41.10;;;;;;5104404;28;27470;-60
2021/04/24 10:39:58;;;;;;;8.63;4.38;;;25.00;39.60;;;;;;5104138;28;27606;-60
2021/04/24 10:43:25;;;;;;;7.47;4.35;;;24.80;37.50;;;;;;5089890;28;27361;-60
2021/04/24 10:46:51;;;;;;;6.13;4.53;;;24.80;39.00;;;;;;5103744;28;27426;-60
2021/04/24 10:50:14;;;;;;;8.65;4.57;;;24.70;40.00;;;;;;5104575;28;27477;-60
2021/04/24 10:54:20;;;;;;;10.65;4.22;;;24.80;40.50;;;;;;5103087;28;27575;-61
2021/04/24 10:57:42;;;;;;;8.70;4.50;;;24.80;38.90;;;;;;5104331;28;27423;-60
2021/04/24 11:00:35;;;;;;;8.90;4.30;;;24.80;39.60;;;;;;5104071;28;27388;-60
2021/04/24 11:04:09;;;;;;;5.72;3.38;;;24.80;38.80;;;;;;5104024;28;27347;-60
2021/04/24 11:07:19;;;;;;;7.40;4.70;;;24.80;39.40;;;;;;5103660;28;27470;-60
2021/04/24 11:10:47;;;;;;;11.77;4.68;;;24.90;38.30;;;;;;5102899;27;27328;-60
2021/04/24 11:13:50;;;;;;;12.07;4.00;;;24.80;38.10;;;;;;5107455;28;27438;-61
2021/04/24 11:16:42;;;;;;;6.78;3.72;;;24.80;42.00;;;;;;5107349;28;27462;-61
2021/04/24 11:20:02;;;;;;;7.07;3.75;;;24.80;40.80;;;;;;5106796;28;27395;-61
2021/04/24 11:23:29;;;;;;;9.05;4.10;;;24.80;39.60;;;;;;5106054;28;27469;-60
2021/04/24 11:26:37;;;;;;;6.38;3.17;;;24.80;40.20;;;;;;5104050;28;27416;-62
2021/04/24 11:30:34;;;;;;;6.28;3.50;;;24.80;43.30;;;;;;5103741;28;27370;-61
2021/04/24 11:34:29;;;;;;;8.52;3.97;;;24.80;41.10;;;;;;5104134;28;27454;-61
2021/04/24 11:38:04;;;;;;;7.55;3.95;;;24.80;40.00;;;;;;5107278;28;27332;-60
2021/04/24 11:41:32;;;;;;;6.60;3.55;;;24.80;39.90;;;;;;5107369;28;27378;-61
2021/04/24 11:44:27;;;;;;;7.30;3.60;;;24.70;39.80;;;;;;5106967;28;27480;-60
2021/04/24 11:47:46;;;;;;;7.80;2.95;;;24.80;40.60;;;;;;5106049;28;27374;-60
2021/04/24 11:51:31;;;;;;;6.63;3.58;;;24.80;44.00;;;;;;5103376;28;27387;-59
2021/04/24 11:54:40;;;;;;;6.35;4.05;;;24.90;42.20;;;;;;5106822;28;27424;-60
2021/04/24 11:57:46;;;;;;;6.47;3.15;;;24.90;42.50;;;;;;5106868;28;27481;-62
2021/04/24 12:01:13;;;;;;;4.88;3.15;;;25.00;42.70;;;;;;5106459;28;27497;-61
2021/04/24 12:04:54;;;;;;;5.05;2.97;;;25.10;43.10;;;;;;5106689;28;27336;-61
2021/04/24 12:08:08;;;;;;;9.02;4.05;;;25.20;42.60;;;;;;5106353;28;27431;-61
2021/04/24 12:10:55;;;;;;;6.45;3.80;;;25.30;36.20;;;;;;5088474;28;27329;-60
2021/04/24 12:14:00;;;;;;;6.75;3.53;;;25.30;39.20;;;;;;5106531;28;27469;-61
2021/04/24 12:17:08;;;;;;;6.80;3.10;;;25.20;40.00;;;;;;5106135;28;27905;-59
2021/04/24 12:20:25;;;;;;;11.95;4.32;;;25.00;38.60;;;;;;5106177;28;27449;-61
2021/04/24 12:23:33;;;;;;;10.30;4.28;;;24.80;41.40;;;;;;5106412;28;27305;-61
2021/04/24 12:26:27;;;;;;;6.25;3.00;;;24.80;41.70;;;;;;5106604;28;27311;-62
2021/04/24 12:29:38;;;;;;;6.97;3.13;;;24.70;44.10;;;;;;5106243;28;27324;-62
2021/04/24 12:33:09;;;;;;;6.53;3.50;;;24.60;44.10;;;;;;5106542;28;27478;-62
2021/04/24 12:36:15;;;;;;;8.90;3.38;;;24.60;45.60;;;;;;5105230;28;27569;-61
2021/04/24 12:39:43;;;;;;;5.97;3.47;;;24.60;43.50;;;;;;5106054;28;27509;-62
2021/04/24 12:43:14;;;;;;;11.23;4.00;;;24.50;46.00;;;;;;5105016;28;27432;-61
2021/04/24 12:46:25;;;;;;;10.00;4.00;;;24.50;46.40;;;;;;5105957;28;27493;-62
2021/04/24 12:49:27;;;;;;;7.78;3.80;;;24.40;45.10;;;;;;5104255;28;27405;-62
2021/04/24 12:52:25;;;;;;;5.32;4.15;;;24.40;47.60;;;;;;5106183;28;27407;-61
2021/04/24 12:55:33;;;;;;;4.40;2.95;;;24.40;44.20;;;;;;5106128;28;27335;-62
2021/04/24 12:58:22;;;;;;;8.85;3.88;;;24.40;45.70;;;;;;5106064;28;27386;-62
2021/04/24 13:01:17;;;;;;;5.43;2.97;;;24.40;49.00;;;;;;5090985;28;27398;-62
2021/04/24 13:04:13;;;;;;;5.97;3.33;;;24.40;46.60;;;;;;5105992;28;26916;-62
2021/04/24 13:07:22;;;;;;;9.50;3.78;;;24.40;49.20;;;;;;5104942;28;27493;-61
2021/04/24 13:10:53;;;;;;;5.80;4.03;;;24.40;46.80;;;;;;5105152;28;27337;-61
2021/04/24 13:14:27;;;;;;;4.80;3.70;;;24.40;45.80;;;;;;5105191;28;27413;-62
2021/04/24 13:17:42;;;;;;;5.13;3.63;;;24.40;48.10;;;;;;5105791;28;27438;-62
2021/04/24 13:20:31;;;;;;;6.50;3.25;;;24.40;45.80;;;;;;5105465;28;27884;-62
2021/04/24 13:23:58;;;;;;;8.98;4.15;;;24.40;47.00;;;;;;5105469;28;27422;-61
2021/04/24 13:26:54;;;;;;;7.80;4.45;;;24.40;46.70;;;;;;5105465;28;27394;-62
2021/04/24 13:30:21;;;;;;;6.93;3.95;;;24.40;44.10;;;;;;5105257;28;27378;-61
2021/04/24 13:33:32;;;;;;;6.45;3.30;;;24.40;46.40;;;;;;5104609;28;27465;-61
2021/04/24 13:36:25;;;;;;;6.68;3.97;;;24.30;45.60;;;;;;5104103;28;27413;-61
2021/04/24 13:39:32;;;;;;;6.22;3.63;;;24.30;49.00;;;;;;5104814;28;27425;-62
2021/04/24 13:42:39;;;;;;;10.75;4.43;;;24.30;48.20;;;;;;5105161;28;27382;-62
2021/04/24 13:46:06;;;;;;;9.57;4.03;;;24.40;47.20;;;;;;5105316;28;27504;-62
2021/04/24 13:49:14;;;;;;;7.40;4.38;;;24.40;49.70;;;;;;5104982;28;27502;-62
2021/04/24 13:52:40;;;;;;;7.05;3.50;;;24.40;46.40;;;;;;5105004;28;27440;-61
2021/04/24 13:55:53;;;;;;;6.25;4.25;;;24.40;47.80;;;;;;5105230;28;27296;-62
2021/04/24 13:59:27;;;;;;;5.80;4.28;;;24.30;48.60;;;;;;5104639;28;27486;-60
2021/04/24 14:02:19;;;;;;;7.97;4.50;;;24.30;46.30;;;;;;5103106;28;27616;-60
2021/04/24 14:05:30;;;;;;;8.02;3.97;;;24.30;46.40;;;;;;5104633;28;26911;-58
2021/04/24 14:08:57;;;;;;;8.93;3.97;;;24.30;47.00;;;;;;5103385;28;27395;-58
2021/04/24 14:12:48;;;;;;;8.00;4.00;;;24.20;46.30;;;;;;5104936;28;27845;-59
2021/04/24 14:15:59;;;;;;;6.63;4.28;;;24.20;45.80;;;;;;5104164;28;27446;-58
2021/04/24 14:19:10;;;;;;;9.68;6.55;;;24.10;50.10;;;;;;5104583;28;27397;-58
2021/04/24 14:22:21;;;;;;;12.77;5.65;;;24.10;47.30;;;;;;5104851;28;27320;-58
2021/04/24 14:25:34;;;;;;;8.93;5.30;;;24.20;46.90;;;;;;5104759;28;27859;-58
2021/04/24 14:29:01;;;;;;;10.70;4.90;;;24.20;45.20;;;;;;5104445;28;27551;-57
2021/04/24 14:32:12;;;;;;;71.57;22.95;;;24.20;46.00;;;;;;5104060;28;27343;-57
2021/04/24 14:35:10;;;;;;;56.25;16.65;;;24.30;88.30;;;;;;5103411;28;27383;-58
2021/04/24 14:38:38;;;;;;;24.67;10.05;;;24.20;81.40;;;;;;5104593;28;27919;-60
2021/04/24 14:41:35;;;;;;;16.95;7.82;;;24.10;61.10;;;;;;5103445;28;27312;-60
2021/04/24 14:44:32;;;;;;;13.98;8.48;;;24.10;55.60;;;;;;5100869;27;27325;-60
2021/04/24 14:47:44;;;;;;;14.25;6.53;;;24.20;50.40;;;;;;5092083;28;27352;-60
2021/04/24 14:50:54;;;;;;;14.75;7.45;;;24.30;48.70;;;;;;5107469;28;27454;-60
2021/04/24 14:54:08;;;;;;;13.85;7.32;;;24.30;44.70;;;;;;5107956;28;27525;-60
2021/04/24 14:57:20;;;;;;;13.02;6.93;;;24.20;46.30;;;;;;5108101;28;27405;-60
2021/04/24 15:00:26;;;;;;;9.95;6.13;;;24.30;45.00;;;;;;5107364;28;27379;-60
2021/04/24 15:03:39;;;;;;;8.93;5.93;;;24.30;45.30;;;;;;5107971;28;27864;-60
2021/04/24 15:06:45;;;;;;;11.27;6.47;;;24.30;40.80;;;;;;5107893;28;27451;-59
2021/04/24 15:09:43;;;;;;;9.65;5.70;;;24.30;41.30;;;;;;5104422;28;27374;-59
2021/04/24 15:13:10;;;;;;;7.15;5.25;;;24.30;39.10;;;;;;5104572;28;27312;-59
2021/04/24 15:16:45;;;;;;;7.93;5.25;;;24.30;40.00;;;;;;5104058;28;27459;-59
2021/04/24 15:19:59;;;;;;;7.72;4.80;;;24.30;38.90;;;;;;5104214;28;27461;-59
2021/04/24 15:22:56;;;;;;;9.18;6.47;;;24.30;39.10;;;;;;5105685;28;27505;-59
2021/04/24 15:26:27;;;;;;;5.13;4.40;;;24.30;37.10;;;;;;5107300;28;27449;-59
2021/04/24 15:29:20;;;;;;;9.15;5.25;;;24.20;38.50;;;;;;5106028;28;27856;-59
2021/04/24 15:32:21;;;;;;;8.07;5.88;;;24.20;38.50;;;;;;5107212;28;27392;-59
2021/04/24 15:35:28;;;;;;;8.43;5.05;;;24.20;38.20;;;;;;5107196;28;27414;-59
2021/04/24 15:38:48;;;;;;;8.40;5.72;;;24.10;38.50;;;;;;5107067;28;27454;-59
2021/04/24 15:41:55;;;;;;;10.30;5.55;;;24.00;37.30;;;;;;5107008;28;27941;-59
2021/04/24 15:45:03;;;;;;;8.38;5.55;;;24.00;38.30;;;;;;5107263;28;27422;-59
2021/04/24 15:47:57;;;;;;;9.95;5.78;;;23.80;40.60;;;;;;5106184;28;27450;-58
2021/04/24 15:51:03;;;;;;;12.00;7.15;;;23.80;40.20;;;;;;5106806;28;27434;-59
2021/04/24 15:54:30;;;;;;;8.45;5.28;;;23.70;38.60;;;;;;5103606;28;27405;-59
2021/04/24 15:57:44;;;;;;;8.57;5.15;;;23.70;41.00;;;;;;5106381;27;27586;-58
2021/04/24 16:01:09;;;;;;;12.13;6.40;;;23.70;39.50;;;;;;5106859;28;27475;-58
2021/04/24 16:04:15;;;;;;;8.80;6.20;;;23.60;38.70;;;;;;5107132;28;27402;-58
2021/04/24 16:07:29;;;;;;;9.00;6.65;;;23.60;39.70;;;;;;5106812;28;27382;-58
2021/04/24 16:10:52;;;;;;;8.43;6.15;;;23.50;39.80;;;;;;5106518;28;27356;-59
2021/04/24 16:13:51;;;;;;;11.80;7.75;;;23.40;39.10;;;;;;5106544;28;27481;-58
2021/04/24 16:17:21;;;;;;;10.30;6.40;;;23.30;39.00;;;;;;5102848;28;27398;-58
2021/04/24 16:21:05;;;;;;;10.82;7.03;;;23.20;39.40;;;;;;5102873;28;27417;-58
2021/04/24 16:24:22;;;;;;;12.30;7.80;;;23.20;40.30;;;;;;5105962;28;27331;-57
2021/04/24 16:27:37;;;;;;;7.68;5.93;;;23.00;38.50;;;;;;5106390;28;27469;-58
2021/04/24 16:30:58;;;;;;;12.90;6.40;;;22.90;42.70;;;;;;5106555;28;27394;-58
2021/04/24 16:34:10;;;;;;;15.02;8.00;;;22.80;43.40;;;;;;5105176;28;27998;-58
2021/04/24 16:37:10;;;;;;;9.63;7.07;;;22.70;40.50;;;;;;5104799;28;27348;-58
2021/04/24 16:40:32;;;;;;;9.57;6.82;;;22.60;39.20;;;;;;5106003;28;27489;-58
2021/04/24 16:43:37;;;;;;;14.48;7.10;;;22.60;40.10;;;;;;5106405;28;27390;-57
2021/04/24 16:46:42;;;;;;;9.38;6.72;;;22.50;40.80;;;;;;5105961;28;27891;-58
2021/04/24 16:49:36;;;;;;;10.80;6.70;;;22.50;40.60;;;;;;5105623;28;27382;-57
2021/04/24 16:52:38;;;;;;;12.25;8.13;;;22.40;41.20;;;;;;5106242;28;27382;-57
2021/04/24 16:55:44;;;;;;;17.75;8.23;;;22.30;32.70;;;;;;5106208;28;27442;-57
2021/04/24 16:58:58;;;;;;;13.48;8.32;;;22.10;32.70;;;;;;5106021;28;27960;-57
2021/04/24 17:02:11;;;;;;;13.50;6.47;;;22.00;33.50;;;;;;5105762;28;27458;-57
2021/04/24 17:05:29;;;;;;;11.00;6.78;;;21.90;34.00;;;;;;5105755;28;27399;-57